createdAt,value
2022-11-19T00:02:01.480Z,97442.34
2022-11-19T00:04:30.832Z,97452.09
2022-11-19T00:06:58.848Z,97454.28
2022-11-19T00:09:27.157Z,97448.03
2022-11-19T00:12:12.858Z,97447.03
2022-11-19T00:14:40.785Z,97449.56
2022-11-19T00:17:08.791Z,97456.91
2022-11-19T00:19:38.030Z,97458.50
2022-11-19T00:22:06.025Z,97442.44
2022-11-19T00:24:33.957Z,97463.28
2022-11-19T00:27:01.886Z,97456.63
2022-11-19T00:29:29.908Z,97467.03
2022-11-19T00:31:57.896Z,97463.94
2022-11-19T00:34:25.832Z,97473.72
2022-11-19T00:36:55.159Z,97468.69
2022-11-19T00:39:23.214Z,97458.63
2022-11-19T00:41:51.240Z,97468.31
2022-11-19T00:44:19.227Z,97461.78
2022-11-19T00:46:47.194Z,97469.50
2022-11-19T00:49:15.181Z,97476.66
2022-11-19T00:51:43.133Z,97480.94
2022-11-19T00:54:12.402Z,97468.16
2022-11-19T00:56:40.402Z,97468.25
2022-11-19T00:59:08.484Z,97466.03
2022-11-19T01:01:36.453Z,97467.78
2022-11-19T01:04:04.541Z,97459.47
2022-11-19T01:06:32.447Z,97475.78
2022-11-19T01:09:00.427Z,97478.19
2022-11-19T01:11:31.515Z,97479.53
2022-11-19T01:13:59.234Z,97469.53
2022-11-19T01:16:29.349Z,97487.94
2022-11-19T01:18:57.743Z,97474.28
2022-11-19T01:21:27.646Z,97480.72
2022-11-19T01:23:56.185Z,97478.09
2022-11-19T01:26:24.678Z,97486.25
2022-11-19T01:28:54.120Z,97477.22
2022-11-19T01:31:24.261Z,97498.06
2022-11-19T01:33:52.536Z,97501.19
2022-11-19T01:36:22.724Z,97491.53
2022-11-19T01:38:51.939Z,97485.28
2022-11-19T01:41:20.734Z,97482.50
2022-11-19T01:43:51.352Z,97493.16
2022-11-19T01:46:22.762Z,97500.13
2022-11-19T01:48:55.076Z,97494.91
2022-11-19T01:51:26.167Z,97493.84
2022-11-19T01:53:58.605Z,97488.16
2022-11-19T01:56:27.757Z,97486.03
2022-11-19T01:59:00.481Z,97501.97
2022-11-19T02:01:30.793Z,97496.84
2022-11-19T02:04:01.825Z,97502.66
2022-11-19T02:06:30.565Z,97515.34
2022-11-19T02:08:58.662Z,97519.13
2022-11-19T02:11:55.939Z,97522.50
2022-11-19T02:14:43.059Z,97521.59
2022-11-19T02:17:21.716Z,97527.78
2022-11-19T02:20:13.594Z,97523.34
2022-11-19T02:23:11.697Z,97531.16
2022-11-19T02:26:02.136Z,97539.91
2022-11-19T02:28:36.580Z,97536.41
2022-11-19T02:31:12.179Z,97547.66
2022-11-19T02:33:46.259Z,97547.41
2022-11-19T02:36:23.908Z,97555.25
2022-11-19T02:38:57.452Z,97558.75
2022-11-19T02:41:36.967Z,97560.88
2022-11-19T02:44:35.153Z,97550.44
2022-11-19T02:47:07.155Z,97561.75
2022-11-19T02:49:40.471Z,97567.94
2022-11-19T02:52:10.255Z,97556.28
2022-11-19T02:54:38.165Z,97545.81
2022-11-19T02:57:06.091Z,97557.25
2022-11-19T02:59:56.204Z,97568.22
2022-11-19T03:02:48.272Z,97573.59
2022-11-19T03:05:20.681Z,97591.50
2022-11-19T03:07:50.474Z,97590.22
2022-11-19T03:10:20.960Z,97580.41
2022-11-19T03:12:53.422Z,97592.00
2022-11-19T03:15:51.224Z,97585.91
2022-11-19T03:18:29.497Z,97590.59
2022-11-19T03:21:05.483Z,97575.38
2022-11-19T03:23:38.363Z,97586.81
2022-11-19T03:26:17.940Z,97595.13
2022-11-19T03:28:49.169Z,97585.66
2022-11-19T03:31:22.845Z,97590.78
2022-11-19T03:33:56.368Z,97589.31
2022-11-19T03:36:31.072Z,97593.84
2022-11-19T03:39:02.322Z,97594.47
2022-11-19T03:41:32.762Z,97591.34
2022-11-19T03:44:07.053Z,97602.03
2022-11-19T03:46:37.132Z,97600.94
2022-11-19T03:49:10.173Z,97603.09
2022-11-19T03:51:42.819Z,97611.34
2022-11-19T03:54:11.295Z,97618.66
2022-11-19T03:56:42.162Z,97613.19
2022-11-19T03:59:12.880Z,97625.81
2022-11-19T04:01:41.467Z,97623.59
2022-11-19T04:04:28.251Z,97629.34
2022-11-19T04:06:56.148Z,97619.22
2022-11-19T04:09:24.130Z,97626.25
2022-11-19T04:14:18.881Z,97624.03
2022-11-19T04:16:46.967Z,97622.38
2022-11-19T04:19:18.100Z,97629.63
2022-11-19T04:21:46.651Z,97635.78
2022-11-19T04:24:14.673Z,97634.88
2022-11-19T04:26:42.574Z,97641.72
2022-11-19T04:29:10.607Z,97630.78
2022-11-19T04:31:38.531Z,97635.75
2022-11-19T04:34:06.603Z,97634.38
2022-11-19T04:36:36.203Z,97633.19
2022-11-19T04:39:04.240Z,97647.84
2022-11-19T04:41:32.262Z,97640.28
2022-11-19T04:44:00.219Z,97642.63
2022-11-19T04:46:28.127Z,97649.47
2022-11-19T04:48:57.120Z,97652.50
2022-11-19T04:51:25.402Z,97650.94
2022-11-19T04:53:55.365Z,97646.09
2022-11-19T04:56:23.261Z,97648.94
2022-11-19T04:58:51.194Z,97653.63
2022-11-19T05:01:20.661Z,97662.09
2022-11-19T05:03:48.757Z,97667.16
2022-11-19T05:06:16.729Z,97664.66
2022-11-19T05:08:44.805Z,97676.25
2022-11-19T05:11:14.285Z,97675.13
2022-11-19T05:13:42.238Z,97671.78
2022-11-19T05:16:10.168Z,97684.56
2022-11-19T05:18:38.174Z,97680.34
2022-11-19T05:21:06.171Z,97687.94
2022-11-19T05:23:34.042Z,97692.88
2022-11-19T05:26:01.953Z,97705.13
2022-11-19T05:28:39.006Z,97715.25
2022-11-19T05:31:08.338Z,97718.22
2022-11-19T05:33:36.304Z,97721.31
2022-11-19T05:36:04.821Z,97732.13
2022-11-19T05:38:32.976Z,97712.63
2022-11-19T05:41:00.863Z,97723.75
2022-11-19T05:43:28.808Z,97730.47
2022-11-19T05:46:00.823Z,97736.97
2022-11-19T05:48:28.721Z,97739.97
2022-11-19T05:50:56.712Z,97740.63
2022-11-19T05:53:24.740Z,97740.72
2022-11-19T05:55:52.725Z,97742.19
2022-11-19T05:58:20.617Z,97743.72
2022-11-19T06:00:48.788Z,97753.06
2022-11-19T06:03:18.256Z,97752.31
2022-11-19T06:05:46.206Z,97767.66
2022-11-19T06:08:14.215Z,97766.91
2022-11-19T06:10:42.216Z,97774.75
2022-11-19T06:13:10.183Z,97777.34
2022-11-19T06:15:38.232Z,97783.88
2022-11-19T06:18:06.276Z,97789.13
2022-11-19T06:20:36.439Z,97799.19
2022-11-19T06:23:04.335Z,97785.25
2022-11-19T06:25:32.282Z,97795.97
2022-11-19T06:28:00.264Z,97796.16
2022-11-19T06:30:28.265Z,97800.84
2022-11-19T06:32:56.144Z,97803.53
2022-11-19T06:35:24.044Z,97804.66
2022-11-19T06:37:53.291Z,97807.25
2022-11-19T06:40:21.191Z,97817.78
2022-11-19T06:42:51.135Z,97828.94
2022-11-19T06:45:19.364Z,97832.22
2022-11-19T06:47:49.609Z,97835.50
2022-11-19T06:50:18.165Z,97845.72
2022-11-19T06:52:46.162Z,97843.84
2022-11-19T06:55:15.575Z,97843.69
2022-11-19T06:57:43.561Z,97844.31
2022-11-19T07:00:13.057Z,97847.72
2022-11-19T07:02:41.093Z,97851.56
2022-11-19T07:05:09.620Z,97865.63
2022-11-19T07:07:37.701Z,97856.69
2022-11-19T07:10:07.285Z,97861.91
2022-11-19T07:12:36.725Z,97862.69
2022-11-19T07:15:05.113Z,97862.50
2022-11-19T07:17:33.297Z,97868.69
2022-11-19T07:20:01.305Z,97865.22
2022-11-19T07:22:29.271Z,97867.81
2022-11-19T07:24:57.232Z,97866.88
2022-11-19T07:27:25.317Z,97868.84
2022-11-19T07:29:54.597Z,97871.97
2022-11-19T07:32:22.706Z,97871.47
2022-11-19T07:34:50.599Z,97877.22
2022-11-19T07:37:18.639Z,97869.13
2022-11-19T07:39:47.032Z,97872.88
2022-11-19T07:42:32.617Z,97862.59
2022-11-19T07:45:11.277Z,97871.00
2022-11-19T07:47:39.292Z,97871.47
2022-11-19T07:50:08.333Z,97878.50
2022-11-19T07:52:36.368Z,97879.19
2022-11-19T07:55:04.552Z,97883.03
2022-11-19T07:57:32.485Z,97892.56
2022-11-19T08:00:00.414Z,97891.59
2022-11-19T08:02:29.725Z,97884.88
2022-11-19T08:04:57.603Z,97889.31
2022-11-19T08:07:26.085Z,97890.75
2022-11-19T08:09:53.995Z,97887.47
2022-11-19T08:12:22.019Z,97896.66
2022-11-19T08:14:50.015Z,97890.47
2022-11-19T08:17:35.445Z,97892.81
2022-11-19T08:20:05.566Z,97893.63
2022-11-19T08:22:33.484Z,97896.25
2022-11-19T08:25:01.352Z,97895.75
2022-11-19T08:27:29.464Z,97890.84
2022-11-19T08:29:57.377Z,97893.59
2022-11-19T08:32:25.296Z,97890.50
2022-11-19T08:34:59.766Z,97894.75
2022-11-19T08:37:30.046Z,97889.00
2022-11-19T08:39:57.947Z,97883.53
2022-11-19T08:42:43.262Z,97896.94
2022-11-19T08:45:11.303Z,97899.69
2022-11-19T08:47:39.275Z,97899.56
2022-11-19T08:50:07.671Z,97904.91
2022-11-19T08:52:37.772Z,97906.63
2022-11-19T08:55:06.508Z,97908.31
2022-11-19T08:57:34.417Z,97915.31
2022-11-19T09:00:06.126Z,97922.44
2022-11-19T09:02:34.525Z,97926.28
2022-11-19T09:05:02.846Z,97922.06
2022-11-19T09:07:30.830Z,97936.16
2022-11-19T09:10:00.109Z,97930.63
2022-11-19T09:12:30.781Z,97925.00
2022-11-19T09:14:58.703Z,97933.66
2022-11-19T09:17:26.625Z,97919.38
2022-11-19T09:19:54.551Z,97917.06
2022-11-19T09:22:22.757Z,97925.66
2022-11-19T09:24:50.782Z,97927.44
2022-11-19T09:27:20.224Z,97934.81
2022-11-19T09:29:48.226Z,97936.44
2022-11-19T09:32:19.866Z,97939.25
2022-11-19T09:34:50.490Z,97942.59
2022-11-19T09:37:18.447Z,97944.88
2022-11-19T09:39:46.368Z,97948.19
2022-11-19T09:42:24.826Z,97942.53
2022-11-19T09:45:16.901Z,97936.28
2022-11-19T09:48:14.333Z,97929.81
2022-11-19T09:50:53.419Z,97943.22
2022-11-19T09:53:23.031Z,97939.34
2022-11-19T09:55:54.098Z,97941.81
2022-11-19T09:58:27.620Z,97950.72
2022-11-19T10:00:55.692Z,97947.00
2022-11-19T10:03:31.647Z,97941.56
2022-11-19T10:06:24.041Z,97945.75
2022-11-19T10:09:18.448Z,97942.75
2022-11-19T10:12:01.390Z,97937.84
2022-11-19T10:14:51.378Z,97938.03
2022-11-19T10:17:29.944Z,97939.69
2022-11-19T10:20:14.888Z,97943.84
2022-11-19T10:22:56.974Z,97934.31
2022-11-19T10:25:29.376Z,97938.75
2022-11-19T10:28:04.782Z,97948.72
2022-11-19T10:30:34.680Z,97947.16
2022-11-19T10:33:08.785Z,97944.03
2022-11-19T10:35:40.557Z,97938.22
2022-11-19T10:38:25.558Z,97940.97
2022-11-19T10:40:57.830Z,97941.09
2022-11-19T10:43:30.082Z,97941.53
2022-11-19T10:46:02.716Z,97933.00
2022-11-19T10:48:41.285Z,97933.56
2022-11-19T10:51:14.480Z,97930.72
2022-11-19T10:53:42.902Z,97931.59
2022-11-19T10:56:15.100Z,97934.75
2022-11-19T10:58:49.409Z,97931.78
2022-11-19T11:01:33.247Z,97925.91
2022-11-19T11:04:08.990Z,97926.34
2022-11-19T11:06:57.426Z,97921.78
2022-11-19T11:09:34.459Z,97921.75
2022-11-19T11:12:28.860Z,97927.81
2022-11-19T11:15:00.977Z,97922.75
2022-11-19T11:17:35.251Z,97923.47
2022-11-19T11:20:07.076Z,97930.53
2022-11-19T11:22:37.053Z,97931.56
2022-11-19T11:25:13.829Z,97934.09
2022-11-19T11:27:43.294Z,97941.03
2022-11-19T11:30:18.259Z,97937.66
2022-11-19T11:32:47.850Z,97943.91
2022-11-19T11:35:31.830Z,97939.81
2022-11-19T11:38:01.166Z,97938.25
2022-11-19T11:40:29.999Z,97945.59
2022-11-19T11:42:58.585Z,97940.81
2022-11-19T11:45:32.304Z,97945.97
2022-11-19T11:48:08.613Z,97950.41
2022-11-19T11:50:37.251Z,97951.38
2022-11-19T11:53:10.038Z,97942.97
2022-11-19T11:55:39.625Z,97948.19
2022-11-19T11:58:25.110Z,97947.13
2022-11-19T12:00:55.406Z,97940.91
2022-11-19T12:03:26.574Z,97939.53
2022-11-19T12:06:12.791Z,97946.50
2022-11-19T12:08:51.591Z,97940.59
2022-11-19T12:11:27.690Z,97947.56
2022-11-19T12:14:04.348Z,97952.22
2022-11-19T12:16:50.288Z,97947.88
2022-11-19T12:19:58.362Z,97954.06
2022-11-19T12:22:38.371Z,97958.00
2022-11-19T12:25:28.121Z,97947.53
2022-11-19T12:28:12.277Z,97954.59
2022-11-19T12:30:48.931Z,97966.13
2022-11-19T12:33:31.746Z,97953.91
2022-11-19T12:36:13.425Z,97956.91
2022-11-19T12:38:50.908Z,97959.00
2022-11-19T12:41:40.817Z,97963.44
2022-11-19T12:44:19.289Z,97961.81
2022-11-19T12:46:56.621Z,97968.72
2022-11-19T12:49:52.341Z,97967.09
2022-11-19T12:52:40.379Z,97964.88
2022-11-19T12:55:16.980Z,97970.75
2022-11-19T12:57:52.175Z,97964.13
2022-11-19T13:00:21.812Z,97967.13
2022-11-19T13:02:58.195Z,97968.25
2022-11-19T13:05:35.509Z,97970.06
2022-11-19T13:08:09.579Z,97971.53
2022-11-19T13:10:41.380Z,97978.63
2022-11-19T13:13:14.420Z,97977.53
2022-11-19T13:15:46.768Z,97974.00
2022-11-19T13:18:17.903Z,97983.88
2022-11-19T13:20:49.773Z,97982.56
2022-11-19T13:23:24.452Z,97978.44
2022-11-19T13:25:59.048Z,97973.31
2022-11-19T13:28:33.715Z,97985.44
2022-11-19T13:31:12.450Z,97988.59
2022-11-19T13:33:45.346Z,97988.50
2022-11-19T13:36:19.727Z,97975.63
2022-11-19T13:38:56.464Z,97984.13
2022-11-19T13:41:29.843Z,97994.41
2022-11-19T13:44:18.544Z,97999.09
2022-11-19T13:46:51.542Z,97985.66
2022-11-19T13:49:26.284Z,97991.22
2022-11-19T13:51:57.685Z,97996.03
2022-11-19T13:54:34.613Z,98000.19
2022-11-19T13:57:03.319Z,97997.44
2022-11-19T13:59:38.030Z,98008.91
2022-11-19T14:02:32.156Z,98020.47
2022-11-19T14:05:25.263Z,98018.63
2022-11-19T14:08:09.997Z,98014.38
2022-11-19T14:10:47.695Z,98024.19
2022-11-19T14:13:34.179Z,98016.09
2022-11-19T14:16:57.004Z,98006.50
2022-11-19T14:19:42.819Z,97987.09
2022-11-19T14:22:53.220Z,98003.75
2022-11-19T14:26:03.370Z,98008.25
2022-11-19T14:28:45.644Z,98000.06
2022-11-19T14:31:15.395Z,98006.28
2022-11-19T14:33:58.428Z,97998.41
2022-11-19T14:36:36.933Z,98009.75
2022-11-19T14:39:15.217Z,98008.22
2022-11-19T14:41:45.860Z,98006.84
2022-11-19T14:44:33.646Z,97995.28
2022-11-19T14:47:33.827Z,98010.66
2022-11-19T14:50:05.145Z,98008.91
2022-11-19T14:52:36.423Z,98009.03
2022-11-19T14:55:07.818Z,98015.66
2022-11-19T14:57:40.510Z,98012.59
2022-11-19T15:00:28.884Z,98023.81
2022-11-19T15:02:58.188Z,98030.25
2022-11-19T15:05:33.254Z,98030.88
2022-11-19T15:08:44.089Z,98030.28
2022-11-19T15:11:14.023Z,98032.06
2022-11-19T15:13:44.362Z,98031.38
2022-11-19T15:16:18.157Z,98040.38
2022-11-19T15:19:31.743Z,98035.13
2022-11-19T15:22:46.302Z,98038.66
2022-11-19T15:25:31.421Z,98023.69
2022-11-19T15:28:20.758Z,98028.97
2022-11-19T15:31:05.658Z,98048.13
2022-11-19T15:34:08.199Z,98035.75
2022-11-19T15:36:41.276Z,98045.47
2022-11-19T15:39:18.575Z,98046.13
2022-11-19T15:42:01.407Z,98045.13
2022-11-19T15:44:35.482Z,98034.69
2022-11-19T15:47:12.431Z,98021.25
2022-11-19T15:49:42.180Z,98033.31
2022-11-19T15:52:20.071Z,98034.38
2022-11-19T15:54:48.101Z,98028.38
2022-11-19T15:57:22.510Z,98031.09
2022-11-19T15:59:55.579Z,98043.13
2022-11-19T16:02:33.577Z,98037.78
2022-11-19T16:05:01.675Z,98044.06
2022-11-19T16:07:31.551Z,98049.53
2022-11-19T16:10:00.547Z,98040.16
2022-11-19T16:12:47.458Z,98043.16
2022-11-19T16:15:42.121Z,98041.53
2022-11-19T16:18:15.755Z,98045.22
2022-11-19T16:20:47.714Z,98044.50
2022-11-19T16:23:19.264Z,98043.84
2022-11-19T16:25:47.660Z,98043.41
2022-11-19T16:28:18.010Z,98041.28
2022-11-19T16:30:49.228Z,98037.72
2022-11-19T16:33:21.348Z,98038.31
2022-11-19T16:35:52.843Z,98037.97
2022-11-19T16:38:26.611Z,98036.00
2022-11-19T16:41:12.978Z,98039.00
2022-11-19T16:43:44.807Z,98047.97
2022-11-19T16:46:16.006Z,98045.50
2022-11-19T16:49:03.544Z,98043.13
2022-11-19T16:51:37.768Z,98038.88
2022-11-19T16:54:10.166Z,98043.38
2022-11-19T16:56:43.541Z,98045.03
2022-11-19T16:59:20.931Z,98038.72
2022-11-19T17:01:58.579Z,98030.88
2022-11-19T17:04:31.408Z,98031.72
2022-11-19T17:07:00.336Z,98036.63
2022-11-19T17:09:35.886Z,98017.50
2022-11-19T17:12:19.365Z,98036.94
2022-11-19T17:14:50.959Z,98030.63
2022-11-19T17:17:41.086Z,98035.44
2022-11-19T17:21:00.439Z,98037.53
2022-11-19T17:23:31.766Z,98027.88
2022-11-19T17:26:02.037Z,98034.28
2022-11-19T17:28:38.233Z,98023.28
2022-11-19T17:31:08.500Z,98031.34
2022-11-19T17:33:52.136Z,98026.34
2022-11-19T17:36:20.437Z,98031.78
2022-11-19T17:38:50.135Z,98032.19
2022-11-19T17:41:42.540Z,98034.00
2022-11-19T17:44:34.673Z,98044.66
2022-11-19T17:47:03.095Z,98039.66
2022-11-19T17:49:31.435Z,98037.28
2022-11-19T17:51:59.601Z,98039.78
2022-11-19T17:54:31.161Z,98046.19
2022-11-19T17:56:59.196Z,98041.59
2022-11-19T17:59:27.098Z,98042.22
2022-11-19T18:01:56.611Z,98043.75
2022-11-19T18:04:24.565Z,98035.97
2022-11-19T18:06:53.039Z,98021.34
2022-11-19T18:09:21.190Z,98039.31
2022-11-19T18:11:50.669Z,98035.09
2022-11-19T18:14:18.613Z,98029.34
2022-11-19T18:16:46.556Z,98029.41
2022-11-19T18:19:23.854Z,98029.06
2022-11-19T18:21:52.537Z,98033.31
2022-11-19T18:24:20.690Z,98035.69
2022-11-19T18:26:49.976Z,98026.34
2022-11-19T18:29:18.118Z,98027.63
2022-11-19T18:31:48.385Z,98027.06
2022-11-19T18:34:19.366Z,98027.53
2022-11-19T18:36:47.324Z,98028.44
2022-11-19T18:39:16.056Z,98023.28
2022-11-19T20:39:00.206Z,98013.13
2022-11-19T20:41:47.172Z,98005.66
2022-11-19T20:44:23.309Z,98008.78
2022-11-19T20:46:53.312Z,98002.44
2022-11-19T20:49:23.810Z,97990.75
2022-11-19T20:51:52.778Z,97997.59
2022-11-19T20:54:22.781Z,97991.72
2022-11-19T20:56:51.894Z,97988.56
2022-11-19T20:59:20.451Z,97991.91
2022-11-19T21:01:49.453Z,97980.59
2022-11-19T21:04:18.129Z,97990.94
2022-11-19T21:06:46.140Z,97983.16
2022-11-19T21:09:14.975Z,97990.84
2022-11-19T21:11:44.711Z,97997.66
2022-11-19T21:14:12.625Z,98005.34
2022-11-19T21:16:41.021Z,98004.56
2022-11-19T21:19:10.283Z,98011.34
2022-11-19T21:21:38.316Z,98007.03
2022-11-19T21:24:07.254Z,97998.81
2022-11-19T21:26:35.526Z,98011.31
2022-11-19T21:29:05.004Z,98008.84
2022-11-19T21:31:44.202Z,98009.78
2022-11-19T21:34:14.361Z,98016.56
2022-11-19T21:36:43.768Z,98013.44
2022-11-19T21:39:13.982Z,98015.34
2022-11-19T21:41:41.978Z,98014.91
2022-11-19T21:44:12.470Z,98004.16
2022-11-19T21:46:42.227Z,97999.50
2022-11-19T21:49:10.182Z,97998.34
2022-11-19T21:51:38.206Z,97999.59
2022-11-19T21:54:06.436Z,97997.00
2022-11-19T21:56:38.553Z,98009.78
2022-11-19T21:59:07.816Z,98013.75
2022-11-19T22:01:37.201Z,98019.16
2022-11-19T22:04:05.739Z,98023.69
2022-11-19T22:06:33.669Z,98021.25
2022-11-19T22:09:01.616Z,98018.63
2022-11-19T22:11:29.550Z,98028.34
2022-11-19T22:13:58.465Z,98022.16
2022-11-19T22:16:26.553Z,98023.03
2022-11-19T22:18:55.976Z,98026.31
2022-11-19T22:21:23.940Z,98010.19
2022-11-19T22:23:52.861Z,98016.38
2022-11-19T22:26:20.904Z,98013.72
2022-11-19T22:28:48.837Z,98010.94
2022-11-19T22:31:16.751Z,98022.09
2022-11-19T22:33:44.679Z,98010.16
2022-11-19T22:36:14.007Z,98009.00
2022-11-19T22:38:41.948Z,98000.25
2022-11-19T22:41:12.159Z,97997.56
2022-11-19T22:43:40.909Z,98001.44
2022-11-19T22:46:10.474Z,98002.53
2022-11-19T22:48:39.122Z,97999.84
2022-11-19T22:51:10.036Z,98007.22
2022-11-19T22:53:39.921Z,98004.22
2022-11-19T22:56:10.299Z,98000.69
2022-11-19T22:58:39.624Z,98004.22
2022-11-19T23:01:09.091Z,98008.81
2022-11-19T23:03:38.629Z,98006.53
2022-11-19T23:06:06.856Z,98013.91
2022-11-19T23:08:34.845Z,98011.16
2022-11-19T23:11:06.093Z,98010.81
2022-11-19T23:13:35.108Z,98007.38
2022-11-19T23:16:06.078Z,97996.53
2022-11-19T23:18:36.103Z,98005.44
2022-11-19T23:21:06.623Z,98004.03
2022-11-19T23:23:34.690Z,98006.00
2022-11-19T23:26:05.712Z,97998.69
2022-11-19T23:28:36.475Z,97997.19
2022-11-19T23:31:06.137Z,97996.09
2022-11-19T23:33:34.295Z,97999.88
2022-11-19T23:36:03.882Z,97998.72
2022-11-19T23:38:31.938Z,98006.06
2022-11-19T23:41:00.554Z,97996.06
2022-11-19T23:43:30.809Z,98003.03
2022-11-19T23:46:05.114Z,97989.50
2022-11-19T23:48:33.283Z,97984.47
2022-11-19T23:51:03.163Z,97981.78
2022-11-19T23:53:31.290Z,97983.72
2022-11-19T23:55:59.399Z,97981.03
2022-11-19T23:58:29.465Z,97984.16
